createdAt,value
2016-06-18T00:00:16.567Z,0
2016-06-18T00:01:16.585Z,0
2016-06-18T00:02:16.668Z,0
2016-06-18T00:03:16.701Z,0
2016-06-18T00:04:16.705Z,0
2016-06-18T00:05:16.771Z,0
2016-06-18T00:06:16.806Z,0
2016-06-18T00:07:16.840Z,0
2016-06-18T00:08:16.876Z,0
2016-06-18T00:09:16.925Z,0
2016-06-18T00:10:16.945Z,0
2016-06-18T00:11:16.980Z,0
2016-06-18T00:12:17.046Z,0
2016-06-18T00:13:17.065Z,0
2016-06-18T00:14:17.131Z,0
2016-06-18T00:15:17.134Z,0
2016-06-18T00:16:17.231Z,0
2016-06-18T00:17:17.235Z,0
2016-06-18T00:18:17.253Z,0
2016-06-18T00:19:17.351Z,0
2016-06-18T00:20:17.995Z,0
2016-06-18T00:21:17.389Z,0
2016-06-18T00:22:17.487Z,0
2016-06-18T00:23:17.474Z,0
2016-06-18T00:24:17.510Z,0
2016-06-18T00:25:17.560Z,0
2016-06-18T00:26:18.250Z,0
2016-06-18T00:27:17.629Z,0
2016-06-18T00:28:18.320Z,0
2016-06-18T00:29:17.714Z,0
2016-06-18T00:30:17.811Z,0
2016-06-18T00:31:17.783Z,0
2016-06-18T00:32:17.835Z,0
2016-06-18T00:33:17.899Z,0
2016-06-18T00:34:17.903Z,0
2016-06-18T00:35:17.937Z,0
2016-06-18T00:36:18.160Z,0
2016-06-18T00:37:18.039Z,0
2016-06-18T00:38:18.073Z,0
2016-06-18T00:39:18.139Z,0
2016-06-18T00:40:18.158Z,0
2016-06-18T00:41:18.240Z,0
2016-06-18T00:42:18.259Z,0
2016-06-18T00:43:18.279Z,0
2016-06-18T00:44:18.344Z,0
2016-06-18T00:45:18.363Z,0
2016-06-18T00:46:18.397Z,0
2016-06-18T00:47:18.432Z,0
2016-06-18T00:48:18.514Z,0
2016-06-18T00:49:18.518Z,0
2016-06-18T00:50:18.552Z,0
2016-06-18T00:51:18.586Z,0
2016-06-18T00:52:18.622Z,0
2016-06-18T00:53:18.703Z,0
2016-06-18T00:54:18.738Z,0
2016-06-18T00:55:18.757Z,0
2016-06-18T00:56:18.823Z,0
2016-06-18T00:57:18.827Z,0
2016-06-18T00:58:18.908Z,0
2016-06-18T00:59:18.912Z,0
2016-06-18T01:00:18.962Z,0
2016-06-18T01:01:19.028Z,0
2016-06-18T01:02:19.078Z,0
2016-06-18T01:03:19.081Z,0
2016-06-18T01:04:19.163Z,0
2016-06-18T01:05:19.807Z,0
2016-06-18T01:06:19.217Z,0
2016-06-18T01:07:19.236Z,0
2016-06-18T01:08:19.271Z,0
2016-06-18T01:09:19.352Z,0
2016-06-18T01:10:19.371Z,0
2016-06-18T01:11:19.406Z,0
2016-06-18T01:12:19.473Z,0
2016-06-18T01:13:19.491Z,0
2016-06-18T01:14:19.558Z,0
2016-06-18T01:15:19.545Z,0
2016-06-18T01:16:19.595Z,0
2016-06-18T01:17:20.302Z,0
2016-06-18T01:18:19.696Z,0
2016-06-18T01:19:19.700Z,0
2016-06-18T01:20:19.734Z,0
2016-06-18T01:21:19.800Z,0
2016-06-18T01:22:19.850Z,0
2016-06-18T01:23:19.869Z,0
2016-06-18T01:24:19.952Z,0
2016-06-18T01:25:19.954Z,0
2016-06-18T01:26:19.989Z,0
2016-06-18T01:27:20.665Z,0
2016-06-18T01:28:20.715Z,0
2016-06-18T01:29:20.093Z,0
2016-06-18T01:30:20.191Z,0
2016-06-18T01:31:20.882Z,0
2016-06-18T01:32:20.229Z,0
2016-06-18T01:33:20.280Z,0
2016-06-18T01:34:20.330Z,0
2016-06-18T01:35:21.036Z,0
2016-06-18T01:36:20.398Z,0
2016-06-18T01:37:20.449Z,0
2016-06-18T01:38:20.484Z,0
2016-06-18T01:39:20.519Z,0
2016-06-18T01:40:20.554Z,0
2016-06-18T01:41:20.619Z,0
2016-06-18T01:42:20.623Z,0
2016-06-18T01:43:20.689Z,0
2016-06-18T01:44:20.723Z,0
2016-06-18T01:45:20.758Z,0
2016-06-18T01:46:20.778Z,0
2016-06-18T01:47:20.812Z,0
2016-06-18T01:48:20.893Z,0
2016-06-18T01:49:20.897Z,0
2016-06-18T01:50:21.214Z,0
2016-06-18T01:51:21.013Z,0
2016-06-18T01:52:21.017Z,0
2016-06-18T01:53:21.083Z,0
2016-06-18T01:54:21.136Z,0
2016-06-18T01:55:21.127Z,0
2016-06-18T01:56:21.179Z,0
2016-06-18T01:57:21.233Z,0
2016-06-18T01:58:21.928Z,0
2016-06-18T01:59:21.964Z,0
2016-06-18T02:00:21.359Z,0
2016-06-18T02:01:21.411Z,0
2016-06-18T02:02:21.494Z,0
2016-06-18T02:03:21.482Z,0
2016-06-18T02:04:21.564Z,0
2016-06-18T02:05:21.584Z,0
2016-06-18T02:06:21.619Z,0
2016-06-18T02:07:21.654Z,0
2016-06-18T02:08:21.705Z,0
2016-06-18T02:09:21.740Z,0
2016-06-18T02:10:21.775Z,0
2016-06-18T02:11:21.810Z,0
2016-06-18T02:12:21.876Z,0
2016-06-18T02:13:21.880Z,0
2016-06-18T02:14:21.915Z,0
2016-06-18T02:15:21.997Z,0
2016-06-18T02:16:22.047Z,0
2016-06-18T02:17:22.051Z,0
2016-06-18T02:18:22.101Z,0
2016-06-18T02:19:22.119Z,0
2016-06-18T02:20:22.154Z,0
2016-06-18T02:21:22.845Z,0
2016-06-18T02:22:22.255Z,0
2016-06-18T02:23:22.274Z,0
2016-06-18T02:24:23.028Z,0
2016-06-18T02:25:23.062Z,0
2016-06-18T02:26:22.410Z,0
2016-06-18T02:27:22.428Z,0
2016-06-18T02:28:22.478Z,0
2016-06-18T02:29:23.185Z,0
2016-06-18T02:30:22.564Z,0
2016-06-18T02:31:22.583Z,0
2016-06-18T02:32:22.650Z,0
2016-06-18T02:33:22.731Z,0
2016-06-18T02:34:22.765Z,0
2016-06-18T02:35:22.753Z,0
2016-06-18T02:36:22.820Z,0
2016-06-18T02:37:22.853Z,0
2016-06-18T02:38:22.904Z,0
2016-06-18T02:39:23.564Z,0
2016-06-18T02:40:22.990Z,0
2016-06-18T02:41:23.008Z,0
2016-06-18T02:42:23.074Z,0
2016-06-18T02:43:23.733Z,0
2016-06-18T02:44:23.112Z,0
2016-06-18T02:45:23.148Z,5
2016-06-18T02:46:23.228Z,5
2016-06-18T02:47:23.232Z,5
2016-06-18T02:48:23.267Z,5
2016-06-18T02:49:23.318Z,5
2016-06-18T02:50:23.382Z,5
2016-06-18T02:51:23.386Z,5
2016-06-18T02:52:23.453Z,5
2016-06-18T02:53:23.472Z,5
2016-06-18T02:54:23.521Z,10
2016-06-18T02:55:23.541Z,10
2016-06-18T02:56:24.278Z,10
2016-06-18T02:57:23.673Z,10
2016-06-18T02:58:23.708Z,10
2016-06-18T02:59:23.743Z,10
2016-06-18T03:00:23.808Z,15
2016-06-18T03:01:23.781Z,15
2016-06-18T03:02:23.846Z,15
2016-06-18T03:03:23.850Z,15
2016-06-18T03:04:23.900Z,15
2016-06-18T03:05:23.966Z,15
2016-06-18T03:06:24.923Z,20
2016-06-18T03:07:24.974Z,20
2016-06-18T03:08:24.086Z,20
2016-06-18T03:09:24.105Z,20
2016-06-18T03:10:24.156Z,20
2016-06-18T03:11:24.221Z,25
2016-06-18T03:12:24.241Z,25
2016-06-18T03:13:24.275Z,25
2016-06-18T03:14:24.309Z,25
2016-06-18T03:15:24.391Z,30
2016-06-18T03:16:24.380Z,30
2016-06-18T03:17:24.414Z,30
2016-06-18T03:18:24.480Z,30
2016-06-18T03:19:24.499Z,30
2016-06-18T03:20:24.565Z,35
2016-06-18T03:21:24.569Z,35
2016-06-18T03:22:24.682Z,35
2016-06-18T03:23:24.684Z,35
2016-06-18T03:24:24.735Z,40
2016-06-18T03:25:24.739Z,40
2016-06-18T03:26:24.789Z,40
2016-06-18T03:27:25.479Z,40
2016-06-18T03:28:24.874Z,45
2016-06-18T03:29:24.908Z,45
2016-06-18T03:30:24.975Z,45
2016-06-18T03:31:24.994Z,45
2016-06-18T03:32:25.027Z,50
2016-06-18T03:33:25.063Z,50
2016-06-18T03:34:25.160Z,50
2016-06-18T03:35:25.133Z,50
2016-06-18T03:36:25.182Z,50
2016-06-18T03:37:25.233Z,55
2016-06-18T03:38:25.268Z,55
2016-06-18T03:39:25.365Z,55
2016-06-18T03:40:25.369Z,55
2016-06-18T03:41:25.434Z,60
2016-06-18T03:42:25.469Z,60
2016-06-18T03:43:25.504Z,60
2016-06-18T03:44:25.492Z,60
2016-06-18T03:45:25.542Z,65
2016-06-18T03:46:26.233Z,65
2016-06-18T03:47:25.643Z,65
2016-06-18T03:48:25.677Z,65
2016-06-18T03:49:25.728Z,70
2016-06-18T03:50:26.231Z,70
2016-06-18T03:51:27.188Z,70
2016-06-18T03:52:25.832Z,70
2016-06-18T03:53:25.851Z,70
2016-06-18T03:54:25.917Z,70
2016-06-18T03:55:25.982Z,75
2016-06-18T03:56:25.986Z,75
2016-06-18T03:57:26.021Z,75
2016-06-18T03:58:26.103Z,75
2016-06-18T03:59:26.137Z,75
2016-06-18T04:00:26.157Z,75
2016-06-18T04:01:26.191Z,80
2016-06-18T04:02:26.273Z,80
2016-06-18T04:03:26.245Z,80
2016-06-18T04:04:26.327Z,85
2016-06-18T04:05:27.002Z,85
2016-06-18T04:06:26.395Z,85
2016-06-18T04:07:27.087Z,85
2016-06-18T04:08:26.466Z,85
2016-06-18T04:09:26.500Z,85
2016-06-18T04:10:26.552Z,85
2016-06-18T04:11:26.593Z,85
2016-06-18T04:12:26.650Z,85
2016-06-18T04:13:26.691Z,85
2016-06-18T04:14:26.731Z,90
2016-06-18T04:15:26.771Z,90
2016-06-18T04:16:26.855Z,90
2016-06-18T04:17:26.892Z,90
2016-06-18T04:18:26.897Z,90
2016-06-18T04:19:26.981Z,90
2016-06-18T04:20:26.971Z,95
2016-06-18T04:21:27.038Z,95
2016-06-18T04:22:27.104Z,95
2016-06-18T04:23:27.110Z,95
2016-06-18T04:24:27.144Z,95
2016-06-18T04:25:27.195Z,95
2016-06-18T04:26:27.230Z,95
2016-06-18T04:27:27.266Z,100
2016-06-18T04:28:27.316Z,100
2016-06-18T04:29:27.352Z,100
2016-06-18T04:30:27.418Z,100
2016-06-18T04:31:27.437Z,100
2016-06-18T04:32:27.471Z,100
2016-06-18T04:33:27.537Z,100
2016-06-18T04:34:28.259Z,100
2016-06-18T04:35:27.638Z,100
2016-06-18T04:36:27.627Z,100
2016-06-18T04:37:27.691Z,100
2016-06-18T04:38:27.726Z,100
2016-06-18T04:39:27.762Z,100
2016-06-18T04:40:27.796Z,105
2016-06-18T04:41:27.846Z,105
2016-06-18T04:42:27.912Z,105
2016-06-18T04:43:27.931Z,105
2016-06-18T04:44:27.966Z,105
2016-06-18T04:45:28.017Z,105
2016-06-18T04:46:28.051Z,105
2016-06-18T04:47:28.070Z,105
2016-06-18T04:48:28.121Z,105
2016-06-18T04:49:28.186Z,105
2016-06-18T04:50:28.206Z,105
2016-06-18T04:51:28.240Z,105
2016-06-18T04:52:28.307Z,105
2016-06-18T04:53:28.310Z,105
2016-06-18T04:54:28.391Z,105
2016-06-18T04:55:28.395Z,105
2016-06-18T04:56:28.460Z,105
2016-06-18T04:57:28.464Z,105
2016-06-18T04:58:28.545Z,105
2016-06-18T04:59:28.565Z,110
2016-06-18T05:00:28.599Z,110
2016-06-18T05:01:28.633Z,110
2016-06-18T05:02:29.356Z,110
2016-06-18T05:03:28.720Z,110
2016-06-18T05:04:28.801Z,110
2016-06-18T05:05:28.805Z,110
2016-06-18T05:06:28.901Z,110
2016-06-18T05:07:28.920Z,110
2016-06-18T05:08:28.940Z,115
2016-06-18T05:09:28.975Z,115
2016-06-18T05:10:28.993Z,115
2016-06-18T05:11:29.059Z,115
2016-06-18T05:12:29.126Z,115
2016-06-18T05:13:29.114Z,115
2016-06-18T05:14:29.147Z,115
2016-06-18T05:15:29.229Z,115
2016-06-18T05:16:29.264Z,115
2016-06-18T05:17:29.283Z,115
2016-06-18T05:18:29.365Z,115
2016-06-18T05:19:29.367Z,115
2016-06-18T05:20:29.418Z,120
2016-06-18T05:21:29.469Z,120
2016-06-18T05:22:29.488Z,120
2016-06-18T05:23:29.554Z,120
2016-06-18T05:24:29.558Z,120
2016-06-18T05:25:29.638Z,120
2016-06-18T05:26:29.642Z,120
2016-06-18T05:27:29.724Z,120
2016-06-18T05:28:29.743Z,120
2016-06-18T05:29:29.777Z,125
2016-06-18T05:30:29.828Z,120
2016-06-18T05:31:29.847Z,120
2016-06-18T05:32:29.898Z,120
2016-06-18T05:33:30.011Z,120
2016-06-18T05:34:29.966Z,120
2016-06-18T05:35:30.048Z,120
2016-06-18T05:36:30.068Z,120
2016-06-18T05:37:30.102Z,120
2016-06-18T05:38:30.152Z,120
2016-06-18T05:39:30.219Z,125
2016-06-18T05:40:30.223Z,125
2016-06-18T05:41:30.257Z,125
2016-06-18T05:42:30.323Z,125
2016-06-18T05:43:30.358Z,125
2016-06-18T05:44:30.407Z,125
2016-06-18T05:45:30.411Z,125
2016-06-18T05:46:30.461Z,125
2016-06-18T05:47:30.543Z,125
2016-06-18T05:48:31.203Z,125
2016-06-18T05:49:30.597Z,125
2016-06-18T05:50:30.663Z,125
2016-06-18T05:51:30.698Z,125
2016-06-18T05:52:30.748Z,125
2016-06-18T05:53:31.423Z,125
2016-06-18T05:54:30.817Z,125
2016-06-18T05:55:31.524Z,125
2016-06-18T05:56:30.887Z,130
2016-06-18T05:57:30.969Z,130
2016-06-18T05:58:30.956Z,130
2016-06-18T05:59:31.022Z,130
2016-06-18T06:00:31.042Z,125
2016-06-18T06:01:31.091Z,130
2016-06-18T06:02:31.158Z,130
2016-06-18T06:03:31.161Z,130
2016-06-18T06:04:31.242Z,130
2016-06-18T06:05:31.246Z,130
2016-06-18T06:06:31.313Z,130
2016-06-18T06:07:31.347Z,130
2016-06-18T06:08:32.006Z,130
2016-06-18T06:09:31.401Z,130
2016-06-18T06:10:31.466Z,130
2016-06-18T06:11:31.517Z,130
2016-06-18T06:12:31.520Z,130
2016-06-18T06:13:31.554Z,135
2016-06-18T06:14:31.621Z,135
2016-06-18T06:15:31.655Z,135
2016-06-18T06:16:32.347Z,135
2016-06-18T06:17:31.772Z,135
2016-06-18T06:18:31.807Z,135
2016-06-18T06:19:31.841Z,135
2016-06-18T06:20:31.861Z,135
2016-06-18T06:21:31.957Z,135
2016-06-18T06:22:31.929Z,135
2016-06-18T06:23:31.980Z,135
2016-06-18T06:24:32.061Z,135
2016-06-18T06:25:32.066Z,135
2016-06-18T06:26:32.100Z,135
2016-06-18T06:27:32.182Z,135
2016-06-18T06:28:32.203Z,135
2016-06-18T06:29:32.237Z,135
2016-06-18T06:30:32.305Z,135
2016-06-18T06:31:32.356Z,135
2016-06-18T06:32:32.375Z,135
2016-06-18T06:33:32.395Z,135
2016-06-18T06:34:32.429Z,140
2016-06-18T06:35:32.496Z,135
2016-06-18T06:36:32.562Z,135
2016-06-18T06:37:32.581Z,135
2016-06-18T06:38:32.646Z,135
2016-06-18T06:39:32.650Z,135
2016-06-18T06:40:32.686Z,135
2016-06-18T06:41:32.752Z,135
2016-06-18T06:42:32.770Z,135
2016-06-18T06:43:32.821Z,140
2016-06-18T06:44:32.839Z,140
2016-06-18T06:45:32.890Z,140
2016-06-18T06:46:32.972Z,140
2016-06-18T06:47:33.022Z,140
2016-06-18T06:48:33.025Z,140
2016-06-18T06:49:33.076Z,140
2016-06-18T06:50:33.111Z,140
2016-06-18T06:51:33.192Z,140
2016-06-18T06:52:33.196Z,140
2016-06-18T06:53:33.230Z,140
2016-06-18T06:54:33.280Z,140
2016-06-18T06:55:33.300Z,140
2016-06-18T06:56:33.366Z,140
2016-06-18T06:57:33.416Z,140
2016-06-18T06:58:33.466Z,140
2016-06-18T06:59:33.469Z,140
2016-06-18T07:00:33.505Z,140
2016-06-18T07:01:33.571Z,140
2016-06-18T07:02:33.605Z,140
2016-06-18T07:03:33.656Z,140
2016-06-18T07:04:33.689Z,140
2016-06-18T07:05:33.725Z,140
2016-06-18T07:06:33.822Z,140
2016-06-18T07:07:33.841Z,145
2016-06-18T07:08:33.892Z,145
2016-06-18T07:09:33.911Z,145
2016-06-18T07:10:33.929Z,145
2016-06-18T07:11:33.980Z,145
2016-06-18T07:12:34.015Z,145
2016-06-18T07:13:34.050Z,145
2016-06-18T07:14:34.116Z,145
2016-06-18T07:15:34.165Z,145
2016-06-18T07:16:34.216Z,145
2016-06-18T07:17:34.234Z,145
2016-06-18T07:18:34.270Z,145
2016-06-18T07:19:34.336Z,145
2016-06-18T07:20:34.340Z,145
2016-06-18T07:21:34.467Z,145
2016-06-18T07:22:34.456Z,145
2016-06-18T07:23:34.474Z,150
2016-06-18T07:24:34.509Z,150
2016-06-18T07:25:34.575Z,150
2016-06-18T07:26:34.626Z,150
2016-06-18T07:27:34.645Z,150
2016-06-18T07:28:34.710Z,150
2016-06-18T07:29:34.730Z,150
2016-06-18T07:30:34.764Z,150
2016-06-18T07:31:34.846Z,150
2016-06-18T07:32:34.881Z,150
2016-06-18T07:33:34.915Z,160
2016-06-18T07:34:34.935Z,175
2016-06-18T07:35:35.001Z,180
2016-06-18T07:36:35.051Z,155
2016-06-18T07:37:35.054Z,150
2016-06-18T07:38:35.104Z,150
2016-06-18T07:39:35.155Z,150
2016-06-18T07:40:35.189Z,150
2016-06-18T07:41:35.272Z,150
2016-06-18T07:42:35.275Z,155
2016-06-18T07:43:35.356Z,150
2016-06-18T07:44:35.360Z,155
2016-06-18T07:45:35.378Z,150
2016-06-18T07:46:35.414Z,150
2016-06-18T07:47:35.543Z,150
2016-06-18T07:48:35.530Z,150
2016-06-18T07:49:35.580Z,155
2016-06-18T07:50:35.646Z,155
2016-06-18T07:51:35.682Z,155
2016-06-18T07:52:36.371Z,155
2016-06-18T07:53:35.781Z,155
2016-06-18T07:54:35.800Z,155
2016-06-18T07:55:35.882Z,155
2016-06-18T07:56:35.854Z,155
2016-06-18T07:57:36.577Z,155
2016-06-18T07:58:35.940Z,155
2016-06-18T07:59:35.974Z,155
2016-06-18T08:00:36.055Z,160
2016-06-18T08:01:36.075Z,160
2016-06-18T08:02:36.109Z,160
2016-06-18T08:03:36.144Z,160
2016-06-18T08:04:36.194Z,160
2016-06-18T08:05:36.245Z,160
2016-06-18T08:06:36.951Z,165
2016-06-18T08:07:36.314Z,170
2016-06-18T08:08:36.380Z,175
2016-06-18T08:09:36.399Z,185
2016-06-18T08:10:36.418Z,185
2016-06-18T08:11:36.500Z,190
2016-06-18T08:12:36.691Z,195
2016-06-18T08:13:37.492Z,205
2016-06-18T08:14:36.603Z,205
2016-06-18T08:15:36.671Z,205
2016-06-18T08:16:36.735Z,190
2016-06-18T08:17:36.724Z,185
2016-06-18T08:18:36.774Z,185
2016-06-18T08:19:36.825Z,185
2016-06-18T08:20:36.875Z,175
2016-06-18T08:21:36.910Z,175
2016-06-18T08:22:36.944Z,175
2016-06-18T08:23:37.026Z,175
2016-06-18T08:24:37.076Z,180
2016-06-18T08:25:37.142Z,180
2016-06-18T08:26:37.131Z,185
2016-06-18T08:27:37.196Z,185
2016-06-18T08:28:37.246Z,190
2016-06-18T08:29:37.249Z,200
2016-06-18T08:30:37.284Z,205
2016-06-18T08:31:37.335Z,200
2016-06-18T08:32:37.401Z,205
2016-06-18T08:33:37.452Z,220
2016-06-18T08:34:37.455Z,265
2016-06-18T08:35:37.520Z,310
2016-06-18T08:36:37.602Z,255
2016-06-18T08:37:37.605Z,240
2016-06-18T08:38:37.625Z,255
2016-06-18T08:39:37.722Z,275
2016-06-18T08:40:37.741Z,240
2016-06-18T08:41:37.744Z,225
2016-06-18T08:42:37.794Z,240
2016-06-18T08:43:37.863Z,225
2016-06-18T08:47:14.297Z,215
2016-06-18T08:47:25.906Z,220
2016-06-18T08:47:29.703Z,205
2016-06-18T08:47:42.000Z,205
2016-06-18T08:48:42.632Z,215
2016-06-18T08:49:42.810Z,235
2016-06-18T08:50:42.096Z,215
2016-06-18T08:51:42.164Z,210
2016-06-18T08:52:42.215Z,215
2016-06-18T08:53:43.595Z,225
2016-06-18T08:54:42.255Z,225
2016-06-18T08:55:42.307Z,235
2016-06-18T08:56:42.388Z,255
2016-06-18T08:57:42.407Z,265
2016-06-18T08:58:42.458Z,260
2016-06-18T08:59:42.493Z,260
2016-06-18T09:00:42.559Z,245
2016-06-18T09:01:42.580Z,230
2016-06-18T09:02:42.662Z,235
2016-06-18T09:03:42.679Z,240
2016-06-18T09:04:42.715Z,245
2016-06-18T09:05:42.734Z,255
2016-06-18T09:06:42.815Z,260
2016-06-18T09:07:42.850Z,280
2016-06-18T09:08:42.869Z,330
2016-06-18T09:09:42.951Z,355
2016-06-18T09:10:43.642Z,335
2016-06-18T09:11:43.004Z,290
2016-06-18T09:12:43.055Z,245
2016-06-18T09:13:43.137Z,240
2016-06-18T09:14:43.781Z,240
2016-06-18T09:15:43.878Z,245
2016-06-18T09:16:43.225Z,280
2016-06-18T09:17:43.261Z,285
2016-06-18T09:20:20.363Z,255
2016-06-18T09:21:20.444Z,255
2016-06-18T09:22:20.463Z,275
2016-06-18T09:23:20.529Z,290
2016-06-18T09:24:20.564Z,275
2016-06-18T09:25:20.614Z,295
2016-06-18T09:26:20.648Z,325
2016-06-18T09:27:20.684Z,385
2016-06-18T09:28:20.891Z,330
2016-06-18T09:29:20.753Z,275
2016-06-18T09:30:21.334Z,250
2016-06-18T09:31:22.542Z,275
2016-06-18T09:32:20.827Z,315
2016-06-18T09:33:20.845Z,315
2016-06-18T09:34:20.911Z,290
2016-06-18T09:35:21.618Z,290
2016-06-18T09:36:21.637Z,380
2016-06-18T09:37:21.030Z,395
2016-06-18T09:38:21.097Z,340
2016-06-18T09:39:21.101Z,345
2016-06-18T09:40:21.541Z,390
2016-06-18T09:41:21.233Z,380
2016-06-18T09:42:21.236Z,350
2016-06-18T09:43:21.490Z,320
2016-06-18T09:44:21.320Z,335
2016-06-18T09:45:21.355Z,350
2016-06-18T09:46:21.406Z,330
2016-06-18T09:47:21.456Z,335
2016-06-18T09:48:21.506Z,340
2016-06-18T09:49:21.557Z,360
2016-06-18T09:50:22.232Z,390
2016-06-18T09:51:21.657Z,420
2016-06-18T09:52:21.693Z,395
2016-06-18T09:53:21.711Z,445
2016-06-18T09:54:23.761Z,510
2016-06-18T09:55:22.453Z,480
2016-06-18T09:56:21.846Z,515
2016-06-18T09:57:21.913Z,605
2016-06-18T09:58:21.963Z,645
2016-06-18T09:59:22.044Z,540
2016-06-18T10:00:22.032Z,480
2016-06-18T10:01:22.098Z,480
2016-06-18T10:02:22.117Z,545
2016-06-18T10:03:22.198Z,600
2016-06-18T10:04:22.234Z,660
2016-06-18T10:05:22.237Z,760
2016-06-18T10:06:22.303Z,785
2016-06-18T10:07:22.384Z,705
2016-06-18T10:08:22.435Z,625
2016-06-18T10:09:22.470Z,545
2016-06-18T10:10:22.505Z,530
2016-06-18T10:11:23.211Z,545
2016-06-18T10:12:22.605Z,485
2016-06-18T10:13:23.265Z,430
2016-06-18T10:14:22.658Z,425
2016-06-18T10:15:23.380Z,420
2016-06-18T10:16:22.790Z,440
2016-06-18T10:17:22.794Z,480
2016-06-18T10:18:22.875Z,550
2016-06-18T10:19:22.895Z,605
2016-06-18T10:20:23.602Z,715
2016-06-18T10:21:23.011Z,800
2016-06-18T10:22:23.046Z,795
2016-06-18T10:23:23.065Z,790
2016-06-18T10:24:23.115Z,730
2016-06-18T10:25:23.228Z,585
2016-06-18T10:26:23.231Z,515
2016-06-18T10:27:23.282Z,475
2016-06-18T10:28:23.300Z,430
2016-06-18T10:29:23.367Z,470
2016-06-18T10:30:23.432Z,515
2016-06-18T10:31:23.436Z,505
2016-06-18T10:32:23.486Z,440
2016-06-18T10:33:23.553Z,385
2016-06-18T10:34:23.556Z,330
2016-06-18T10:35:23.638Z,275
2016-06-18T10:36:23.672Z,235
2016-06-18T10:37:23.722Z,210
2016-06-18T10:38:23.757Z,195
2016-06-18T10:39:23.839Z,185
2016-06-18T10:40:23.874Z,185
2016-06-18T10:41:23.892Z,195
2016-06-18T10:42:23.943Z,210
2016-06-18T10:43:23.993Z,230
2016-06-18T10:44:24.012Z,235
2016-06-18T10:45:24.095Z,225
2016-06-18T10:46:24.113Z,225
2016-06-18T10:47:24.804Z,230
2016-06-18T10:48:24.213Z,230
2016-06-18T10:49:24.248Z,225
2016-06-18T10:50:24.284Z,230
2016-06-18T10:51:24.349Z,250
2016-06-18T10:52:25.041Z,275
2016-06-18T10:53:24.419Z,300
2016-06-18T10:54:24.454Z,335
2016-06-18T10:55:24.535Z,365
2016-06-18T10:56:24.569Z,385
2016-06-18T10:57:24.604Z,395
2016-06-18T10:58:24.654Z,390
2016-06-18T10:59:25.018Z,385
2016-06-18T11:00:24.740Z,395
2016-06-18T11:01:24.775Z,430
2016-06-18T11:02:24.809Z,490
2016-06-18T11:03:25.516Z,565
2016-06-18T11:04:24.878Z,640
2016-06-18T11:05:24.929Z,710
2016-06-18T11:06:25.339Z,790
2016-06-18T11:07:25.014Z,930
2016-06-18T11:08:25.080Z,1060
2016-06-18T11:09:25.162Z,1335
2016-06-18T11:10:25.165Z,2460
2016-06-18T11:11:25.199Z,1590
2016-06-18T11:12:25.250Z,1125
2016-06-18T11:13:25.284Z,1000
2016-06-18T11:14:25.350Z,1230
2016-06-18T11:15:25.401Z,3445
2016-06-18T11:16:25.435Z,2955
2016-06-18T11:17:25.455Z,3245
2016-06-18T11:18:25.521Z,1050
2016-06-18T11:19:25.587Z,4260
2016-06-18T11:20:25.637Z,1080
2016-06-18T11:21:25.656Z,890
2016-06-18T11:22:25.738Z,945
2016-06-18T11:23:25.772Z,1070
2016-06-18T11:24:25.808Z,1095
2016-06-18T11:25:25.855Z,895
2016-06-18T11:26:25.906Z,620
2016-06-18T11:27:25.941Z,510
2016-06-18T11:28:26.006Z,510
2016-06-18T11:29:26.041Z,555
2016-06-18T11:30:26.107Z,600
2016-06-18T11:31:26.142Z,635
2016-06-18T11:32:26.177Z,675
2016-06-18T11:33:26.258Z,750
2016-06-18T11:34:26.933Z,850
2016-06-18T11:41:28.120Z,1030
2016-06-18T11:42:28.154Z,1255
2016-06-18T11:43:28.221Z,1690
2016-06-18T11:44:28.287Z,5005
2016-06-18T11:45:28.290Z,4220
2016-06-18T11:46:28.340Z,3115
2016-06-18T11:47:28.423Z,945
2016-06-18T11:48:28.425Z,815
2016-06-18T11:49:44.448Z,770
2016-06-18T11:50:28.573Z,725
2016-06-18T11:51:28.608Z,710
2016-06-18T11:52:28.675Z,730
2016-06-18T11:53:28.693Z,790
2016-06-18T11:54:28.760Z,790
2016-06-18T11:55:28.856Z,755
2016-06-18T11:56:28.845Z,615
2016-06-18T11:57:28.895Z,790
2016-06-18T11:58:28.992Z,985
2016-06-18T11:59:28.982Z,555
2016-06-18T12:00:29.048Z,880
2016-06-18T12:01:29.100Z,510
2016-06-18T12:02:29.167Z,485
2016-06-18T12:03:29.218Z,490
2016-06-18T12:04:29.894Z,515
2016-06-18T12:05:29.304Z,525
2016-06-18T12:06:29.370Z,510
2016-06-18T12:07:29.421Z,535
2016-06-18T12:08:29.441Z,700
2016-06-18T12:09:29.475Z,1270
2016-06-18T12:10:29.588Z,2680
2016-06-18T12:11:29.591Z,3490
2016-06-18T12:12:29.658Z,4195
2016-06-18T12:13:29.708Z,4150
2016-06-18T12:14:29.726Z,3910
2016-06-18T12:15:29.808Z,4025
2016-06-18T12:16:29.828Z,4155
2016-06-18T12:17:29.862Z,4270
2016-06-18T12:18:29.977Z,4215
2016-06-18T12:19:29.995Z,4230
2016-06-18T12:20:30.062Z,4265
2016-06-18T12:21:30.097Z,4330
2016-06-18T12:22:30.163Z,4400
2016-06-18T12:23:30.212Z,4455
2016-06-18T12:24:30.310Z,4495
2016-06-18T12:25:31.017Z,4500
2016-06-18T12:26:30.411Z,4595
2016-06-18T12:27:30.414Z,4590
2016-06-18T12:28:30.512Z,4615
2016-06-18T12:29:31.234Z,4580
2016-06-18T12:30:30.612Z,4515
2016-06-18T12:31:30.694Z,4490
2016-06-18T12:32:30.743Z,4250
2016-06-18T12:33:30.794Z,4115
2016-06-18T12:34:31.110Z,4100
2016-06-18T12:35:30.926Z,4075
2016-06-18T12:36:30.993Z,4085
2016-06-18T12:37:31.683Z,4090
2016-06-18T12:38:31.109Z,4105
2016-06-18T12:39:31.159Z,4130
2016-06-18T12:40:31.241Z,4125
2016-06-18T12:41:31.322Z,4150
2016-06-18T12:42:31.341Z,4120
2016-06-18T12:43:31.454Z,3970
2016-06-18T12:44:31.505Z,3910
2016-06-18T12:45:31.571Z,3810
2016-06-18T12:46:32.292Z,3790
2016-06-18T12:47:31.687Z,3820
2016-06-18T12:48:31.721Z,3850
2016-06-18T12:49:31.803Z,3840
2016-06-18T12:50:31.916Z,3835
2016-06-18T12:51:31.951Z,3865
2016-06-18T12:52:31.986Z,3830
2016-06-18T12:53:32.068Z,3865
2016-06-18T12:54:32.134Z,3880
2016-06-18T12:55:32.185Z,3975
2016-06-18T12:56:32.267Z,4060
2016-06-18T12:57:32.333Z,4140
2016-06-18T12:58:32.415Z,1135
2016-06-18T12:59:32.480Z,1815
2016-06-18T13:00:32.515Z,4210
2016-06-18T13:01:32.581Z,3730
2016-06-18T13:02:33.272Z,3970
2016-06-18T13:03:32.744Z,4005
2016-06-18T13:04:32.763Z,3935
2016-06-18T13:05:32.829Z,3445
2016-06-18T13:06:32.926Z,635
2016-06-18T13:07:32.992Z,3930
2016-06-18T13:08:33.027Z,1530
2016-06-18T13:09:33.156Z,2665
2016-06-18T13:10:33.127Z,1925
2016-06-18T13:11:33.210Z,2095
2016-06-18T13:12:33.275Z,805
2016-06-18T13:13:33.310Z,1685
2016-06-18T13:14:33.438Z,1525
2016-06-18T13:15:33.473Z,1220
2016-06-18T13:16:33.508Z,1105
2016-06-18T13:17:33.605Z,955
2016-06-18T13:18:33.639Z,1125
2016-06-18T13:19:33.690Z,1395
2016-06-18T13:20:33.756Z,1160
2016-06-18T13:21:34.447Z,3755
2016-06-18T13:22:33.919Z,2675
2016-06-18T13:23:33.908Z,1115
2016-06-18T13:24:33.974Z,2990
2016-06-18T13:25:34.089Z,1740
2016-06-18T13:26:34.108Z,925
2016-06-18T13:27:34.160Z,855
2016-06-18T13:28:34.211Z,3255
2016-06-18T13:29:34.262Z,510
2016-06-18T13:30:34.313Z,355
2016-06-18T13:31:34.379Z,325
2016-06-18T13:32:35.118Z,340
2016-06-18T13:33:34.527Z,360
2016-06-18T13:34:34.563Z,340
2016-06-18T13:35:34.645Z,300
2016-06-18T13:36:34.711Z,280
2016-06-18T13:37:34.746Z,260
2016-06-18T13:38:34.796Z,220
2016-06-18T13:39:34.847Z,150
2016-06-18T13:40:34.912Z,105
2016-06-18T13:41:34.932Z,75
2016-06-18T13:42:34.982Z,60
2016-06-18T13:43:35.111Z,50
2016-06-18T13:44:35.115Z,40
2016-06-18T13:45:35.133Z,40
2016-06-18T13:46:35.200Z,40
2016-06-18T13:47:35.890Z,40
2016-06-18T13:48:35.315Z,45
2016-06-18T13:49:35.366Z,50
2016-06-18T13:50:36.760Z,60
2016-06-18T13:51:35.451Z,60
2016-06-18T13:52:35.517Z,70
2016-06-18T13:53:35.599Z,90
2016-06-18T13:54:35.618Z,105
2016-06-18T13:55:35.667Z,140
2016-06-18T13:56:35.734Z,195
2016-06-18T13:57:35.737Z,255
2016-06-18T13:58:35.786Z,310
2016-06-18T13:59:35.851Z,355
2016-06-18T14:00:35.869Z,390
2016-06-18T14:01:36.590Z,420
2016-06-18T14:02:35.982Z,480
2016-06-18T14:03:36.033Z,585
2016-06-18T14:04:36.067Z,620
2016-06-18T14:05:36.180Z,700
2016-06-18T14:06:36.167Z,1175